Time;durP1;ratioP1;P1;durP2;ratioP2;P2;SDS_P1;SDS_P2;PMS_P1;PMS_P2;Temp;Humidity;BMP_temperature;BMP_pressure;BME280_temperature;BME280_humidity;BME280_pressure;Samples;Min_cycle;Max_cycle;Signal;HPM_P1;HPM_P2
2021/12/27 00:00:37;;;;;;;36.92;24.63;;;;;;;1.41;86.18;99603.44;6125853;23;20025;-68
2021/12/27 00:03:41;;;;;;;33.20;22.00;;;;;;;1.44;86.00;99599.03;6125905;23;20060;-68
2021/12/27 00:06:44;;;;;;;31.08;22.52;;;;;;;1.41;86.42;99596.53;6125852;23;20032;-68
2021/12/27 00:09:49;;;;;;;31.80;22.42;;;;;;;1.44;85.91;99600.78;6125225;23;20075;-68
2021/12/27 00:12:53;;;;;;;37.83;23.88;;;;;;;1.30;86.90;99598.56;6125910;23;20025;-69
2021/12/27 00:15:56;;;;;;;29.55;22.00;;;;;;;1.37;86.81;99587.19;6125743;23;20072;-68
2021/12/27 00:18:59;;;;;;;;;;;;;;;1.39;86.61;99586.28;6126030;23;20080;-68
2021/12/27 00:22:03;;;;;;;32.10;21.02;;;;;;;1.41;86.36;99596.53;6125485;23;19951;-68
2021/12/27 00:25:08;;;;;;;32.30;20.70;;;;;;;1.39;86.64;99595.72;6125392;23;20076;-68
2021/12/27 00:28:11;;;;;;;29.88;21.05;;;;;;;1.42;86.31;99582.78;6125711;23;20412;-68
2021/12/27 00:31:14;;;;;;;;;;;;;;;1.47;86.20;99580.03;6126201;23;20045;-68
2021/12/27 00:34:17;;;;;;;31.65;20.13;;;;;;;1.48;86.20;99584.31;6137409;23;20058;-69
2021/12/27 00:37:21;;;;;;;30.70;22.10;;;;;;;1.51;86.47;99585.06;6154915;23;20028;-68
2021/12/27 00:40:24;;;;;;;;;;;;;;;1.54;86.30;99574.69;6155495;23;20028;-68
2021/12/27 00:43:28;;;;;;;30.70;21.15;;;;;;;1.46;86.29;99586.94;6154994;23;19915;-68
2021/12/27 00:46:31;;;;;;;27.83;19.23;;;;;;;1.44;86.40;99575.84;6154923;23;20025;-68
2021/12/27 00:49:34;;;;;;;31.35;22.05;;;;;;;1.52;86.48;99573.03;6154680;23;20024;-68
2021/12/27 00:52:38;;;;;;;30.52;21.35;;;;;;;1.56;86.14;99561.72;6154662;23;20494;-68
2021/12/27 00:55:40;;;;;;;28.05;20.58;;;;;;;1.48;86.43;99564.56;6154712;23;20028;-68
2021/12/27 00:58:44;;;;;;;31.65;21.58;;;;;;;1.51;86.08;99564.47;6154828;23;20363;-68
2021/12/27 01:01:47;;;;;;;;;;;;;;;1.29;86.89;99574.56;6155325;23;20020;-68
2021/12/27 01:04:51;;;;;;;33.20;22.25;;;;;;;1.29;87.41;99573.72;6154719;23;20340;-68
2021/12/27 01:07:55;;;;;;;33.42;22.42;;;;;;;1.14;87.77;99581.00;6154505;23;20232;-68
2021/12/27 01:14:37;;;;;;;31.10;20.95;;;;;;;1.25;87.57;99577.28;6154679;23;20045;-68
2021/12/27 01:17:45;;;;;;;30.92;20.80;;;;;;;1.32;87.53;99571.06;6154648;23;20072;-68
2021/12/27 01:20:49;;;;;;;34.65;21.65;;;;;;;1.32;87.41;99581.34;6154769;23;20076;-68
2021/12/27 01:23:55;;;;;;;31.08;22.00;;;;;;;1.32;87.71;99578.78;6154487;23;20029;-68
2021/12/27 01:27:01;;;;;;;30.33;20.75;;;;;;;1.37;87.10;99571.75;6154672;23;20027;-68
2021/12/27 01:30:07;;;;;;;30.33;20.67;;;;;;;1.52;86.79;99562.72;6154192;23;20104;-68
2021/12/27 01:33:10;;;;;;;29.30;19.70;;;;;;;1.55;86.66;99565.22;6154406;23;20099;-68
2021/12/27 01:36:14;;;;;;;26.90;19.88;;;;;;;1.39;87.38;99565.66;6154206;23;20052;-68
2021/12/27 01:39:17;;;;;;;27.60;19.15;;;;;;;1.49;86.85;99567.97;6154388;23;20029;-68
2021/12/27 01:42:20;;;;;;;;;;;;;;;1.55;86.90;99566.03;6155005;23;20465;-68
2021/12/27 01:45:24;;;;;;;31.27;21.35;;;;;;;1.62;86.74;99562.38;6154366;23;19914;-68
2021/12/27 01:48:33;;;;;;;31.92;22.98;;;;;;;1.56;86.51;99565.19;6154331;23;20462;-68
2021/12/27 01:51:38;;;;;;;29.48;20.73;;;;;;;1.54;86.40;99566.94;6154270;23;20036;-68
2021/12/27 01:54:41;;;;;;;32.42;21.58;;;;;;;1.50;86.79;99567.94;6154502;23;20469;-68
2021/12/27 01:57:45;;;;;;;29.63;19.83;;;;;;;1.54;86.65;99553.22;6154421;23;20072;-68
2021/12/27 02:00:54;;;;;;;29.63;20.35;;;;;;;1.50;86.98;99552.47;6154361;23;20458;-68
2021/12/27 02:03:57;;;;;;;32.08;20.83;;;;;;;1.39;87.32;99557.94;6154251;23;20032;-68
2021/12/27 02:07:00;;;;;;;29.75;20.63;;;;;;;1.40;87.43;99556.19;6154228;23;20028;-68
2021/12/27 02:10:04;;;;;;;31.75;21.48;;;;;;;1.58;87.03;99562.53;6155765;23;20024;-68
2021/12/27 02:13:07;;;;;;;;;;;;;;;1.36;87.51;99567.50;6156919;23;20609;-68
2021/12/27 02:16:17;;;;;;;31.83;18.77;;;;;;;1.24;88.13;99570.44;6172597;23;20310;-68
2021/12/27 02:19:20;;;;;;;39.30;25.08;;;;;;;1.16;88.51;99558.63;6155829;23;20020;-68
2021/12/27 02:22:24;;;;;;;34.30;22.33;;;;;;;1.25;88.33;99561.84;6156246;23;20028;-68
2021/12/27 02:25:32;;;;;;;29.73;21.08;;;;;;;1.35;88.09;99558.09;6156621;23;20024;-68
2021/12/27 02:28:36;;;;;;;31.02;20.92;;;;;;;1.40;88.05;99545.91;6156093;23;20049;-68
2021/12/27 02:31:40;;;;;;;34.78;20.50;;;;;;;1.48;87.19;99549.09;6156141;23;20466;-68
2021/12/27 02:34:44;;;;;;;28.83;20.08;;;;;;;1.58;86.84;99545.34;6155859;23;20060;-68
2021/12/27 02:37:48;;;;;;;30.80;20.83;;;;;;;1.50;87.09;99542.19;6156102;23;20481;-68
2021/12/27 02:40:52;;;;;;;37.25;23.33;;;;;;;1.49;87.06;99540.47;6156139;23;20462;-68
2021/12/27 02:43:55;;;;;;;32.65;22.13;;;;;;;1.49;87.20;99534.47;6156083;23;20482;-68
2021/12/27 02:46:58;;;;;;;28.45;19.63;;;;;;;1.57;87.10;99537.66;6155992;23;20113;-68
2021/12/27 02:50:02;;;;;;;32.10;21.67;;;;;;;1.51;86.79;99537.88;6155455;23;20028;-68
2021/12/27 02:53:08;;;;;;;33.30;20.77;;;;;;;1.51;86.88;99525.81;6155992;23;20585;-68
2021/12/27 02:56:11;;;;;;;29.05;20.05;;;;;;;1.62;86.63;99523.72;6155869;23;20040;-68
2021/12/27 02:59:14;;;;;;;;;;;;;;;1.62;86.59;99526.31;6156346;23;20044;-68
2021/12/27 03:02:18;;;;;;;27.75;18.60;;;;;;;1.43;87.50;99529.50;6155897;23;19991;-68
2021/12/27 03:05:23;;;;;;;29.42;19.38;;;;;;;1.49;87.35;99522.44;6156001;23;20071;-68
2021/12/27 03:08:26;;;;;;;29.02;20.05;;;;;;;1.49;87.35;99525.00;6155768;23;20407;-68
2021/12/27 03:11:29;;;;;;;;;;;;;;;1.50;87.36;99526.72;6156285;23;20088;-69
2021/12/27 03:14:32;;;;;;;31.73;19.85;;;;;;;1.51;87.47;99528.38;6156079;23;19959;-68
2021/12/27 03:17:36;;;;;;;29.20;19.77;;;;;;;1.55;87.19;99523.97;6155640;23;20184;-69
2021/12/27 03:20:39;;;;;;;;;;;;;;;1.63;86.91;99522.84;6156052;23;20024;-68
2021/12/27 03:23:44;;;;;;;33.70;21.98;;;;;;;1.63;86.88;99516.88;6155858;23;20242;-68
2021/12/27 03:26:47;;;;;;;31.08;20.08;;;;;;;1.62;86.60;99505.69;6155704;23;20024;-68
2021/12/27 03:29:50;;;;;;;29.85;19.83;;;;;;;1.60;86.97;99512.66;6155505;23;20054;-68
2021/12/27 03:32:54;;;;;;;32.75;21.73;;;;;;;1.50;87.08;99506.09;6155837;23;20534;-68
2021/12/27 03:36:02;;;;;;;34.10;20.90;;;;;;;1.56;86.95;99505.91;6096884;23;20109;-68
2021/12/27 03:39:10;;;;;;;33.85;22.02;;;;;;;1.61;86.97;99509.16;6096746;23;20037;-68
2021/12/27 03:42:15;;;;;;;37.38;24.15;;;;;;;1.61;86.78;99504.00;6096692;23;20077;-68
2021/12/27 03:45:27;;;;;;;33.75;22.50;;;;;;;1.55;86.67;99501.63;6096640;23;20077;-68
2021/12/27 03:48:30;;;;;;;34.33;22.60;;;;;;;1.48;87.36;99507.88;6096222;23;20081;-68
2021/12/27 03:51:33;;;;;;;32.88;22.02;;;;;;;1.48;87.51;99505.31;6096706;23;20353;-68
2021/12/27 03:54:37;;;;;;;38.55;24.20;;;;;;;1.42;87.56;99505.50;6096756;23;20483;-68
2021/12/27 03:57:42;;;;;;;39.28;23.20;;;;;;;1.45;87.48;99505.41;6096603;23;20073;-68
2021/12/27 04:03:50;;;;;;;;;;;;;;;1.51;87.34;99502.63;6097055;23;20030;-68
2021/12/27 04:07:13;;;;;;;30.10;19.45;;;;;;;1.53;87.25;99503.44;6096555;23;19951;-69
2021/12/27 04:10:38;;;;;;;35.10;22.58;;;;;;;1.43;87.47;99504.59;6096395;23;20049;-68
2021/12/27 04:14:02;;;;;;;32.10;20.40;;;;;;;1.52;87.35;99508.63;6095583;23;20080;-68
2021/12/27 04:21:24;;;;;;;36.97;23.30;;;;;;;1.67;86.56;99502.16;6092466;23;20073;-68
2021/12/27 04:24:27;;;;;;;39.10;23.08;;;;;;;1.62;86.88;99492.81;6092455;23;20144;-68
2021/12/27 04:27:31;;;;;;;;;;;;;;;1.60;87.12;99491.19;6091934;23;20548;-68
2021/12/27 04:30:34;;;;;;;29.88;19.83;;;;;;;1.54;86.96;99487.06;6092166;23;20351;-68
2021/12/27 04:33:37;;;;;;;35.60;20.50;;;;;;;1.53;87.25;99485.41;6100338;23;20357;-69
2021/12/27 04:36:41;;;;;;;30.17;19.13;;;;;;;1.42;87.49;99489.19;6150851;23;20029;-69
2021/12/27 04:39:44;;;;;;;;;;;;;;;1.57;87.39;99473.25;6150595;23;20071;-68
2021/12/27 04:43:17;;;;;;;32.92;20.42;;;;;;;1.58;87.04;99472.34;6142869;23;20361;-69
2021/12/27 04:46:20;;;;;;;34.88;22.02;;;;;;;1.62;86.78;99474.78;6146136;23;20265;-69
2021/12/27 04:49:24;;;;;;;;;;;;;;;1.65;86.78;99467.84;6145764;23;20511;-69
2021/12/27 04:52:27;;;;;;;38.33;23.85;;;;;;;1.47;87.57;99475.28;6145860;23;19917;-69
2021/12/27 04:55:32;;;;;;;43.10;25.38;;;;;;;1.51;87.58;99469.13;6145962;23;20036;-69
2021/12/27 04:58:35;;;;;;;38.53;23.15;;;;;;;1.53;87.31;99469.94;6145930;23;20159;-69
2021/12/27 05:01:39;;;;;;;;;;;;;;;1.56;87.14;99476.72;6146811;23;20028;-69
2021/12/27 05:04:42;;;;;;;37.08;21.92;;;;;;;1.61;87.07;99473.09;6146609;23;19915;-69
2021/12/27 05:07:47;;;;;;;38.22;22.98;;;;;;;1.61;86.76;99467.94;6147108;23;20064;-69
2021/12/27 05:10:50;;;;;;;32.70;22.50;;;;;;;1.59;86.95;99468.88;6146078;23;20521;-69
2021/12/27 05:13:54;;;;;;;32.75;22.65;;;;;;;1.62;86.67;99463.63;6148330;23;20032;-69
2021/12/27 05:16:58;;;;;;;;;;;;;;;1.59;87.02;99463.72;6150241;23;20044;-69
2021/12/27 05:20:04;;;;;;;34.75;21.90;;;;;;;1.58;86.80;99452.59;6149091;23;19963;-69
2021/12/27 05:23:08;;;;;;;33.42;21.17;;;;;;;1.57;87.32;99456.06;6151013;23;20362;-70
2021/12/27 05:26:11;;;;;;;35.58;22.80;;;;;;;1.39;87.28;99451.50;6150684;23;20567;-69
2021/12/27 05:32:17;;;;;;;40.13;23.92;;;;;;;1.54;86.93;99445.84;6178831;22;19920;-69
2021/12/27 05:35:20;;;;;;;37.20;24.30;;;;;;;1.48;87.62;99450.38;6205335;23;20440;-70
2021/12/27 05:38:23;;;;;;;36.10;23.05;;;;;;;1.50;87.39;99452.00;6202007;23;20039;-69
2021/12/27 05:41:27;;;;;;;;;;;;;;;1.57;87.31;99445.75;6202469;23;20024;-69
2021/12/27 05:48:15;;;;;;;40.38;23.27;;;;;;;1.49;87.57;99457.19;6176979;22;20362;-68
2021/12/27 05:54:51;;;;;;;36.33;22.17;;;;;;;1.63;87.03;99445.56;6183016;22;20048;-62
2021/12/27 05:57:55;;;;;;;35.85;22.40;;;;;;;1.57;87.20;99450.91;6185490;23;20031;-62
2021/12/27 06:00:59;;;;;;;38.80;23.15;;;;;;;1.63;86.98;99455.88;6204316;23;20058;-62
2021/12/27 06:04:03;;;;;;;33.90;22.30;;;;;;;1.66;87.15;99454.06;6204872;23;20561;-62
2021/12/27 06:07:06;;;;;;;30.40;20.27;;;;;;;1.69;86.82;99443.66;6205052;23;20405;-62
2021/12/27 06:10:10;;;;;;;28.85;19.58;;;;;;;1.62;87.33;99443.84;6204707;23;20500;-62
2021/12/27 06:13:13;;;;;;;28.02;18.77;;;;;;;1.61;87.41;99442.19;6204079;23;20047;-62
2021/12/27 06:16:17;;;;;;;;;;;;;;;1.63;87.11;99444.72;6204686;23;20043;-64
2021/12/27 06:19:26;;;;;;;31.15;20.17;;;;;;;1.72;87.02;99435.81;6204963;23;19915;-62
2021/12/27 06:22:29;;;;;;;34.47;20.63;;;;;;;1.66;86.86;99438.59;6205434;23;20079;-62
2021/12/27 06:25:33;;;;;;;35.88;21.33;;;;;;;1.63;86.87;99429.25;6204999;23;20030;-63
2021/12/27 06:28:36;;;;;;;37.25;21.67;;;;;;;1.66;87.11;99429.16;6185449;23;20078;-63
2021/12/27 06:31:40;;;;;;;31.95;21.67;;;;;;;1.67;87.15;99425.69;6206435;23;20054;-63
2021/12/27 06:34:43;;;;;;;31.95;21.55;;;;;;;1.76;86.88;99432.28;6202453;23;20067;-62
2021/12/27 06:37:47;;;;;;;31.70;20.27;;;;;;;1.76;86.63;99422.78;6205163;23;20086;-62
2021/12/27 06:40:52;;;;;;;32.25;21.08;;;;;;;1.77;86.75;99413.31;6206620;23;20023;-62
2021/12/27 06:43:55;;;;;;;34.92;22.00;;;;;;;1.65;86.79;99421.47;6207771;23;20031;-62
2021/12/27 06:46:59;;;;;;;34.63;22.15;;;;;;;1.66;86.99;99417.97;6207699;23;20203;-63
2021/12/27 06:50:04;;;;;;;38.35;22.15;;;;;;;1.57;87.15;99420.00;6189516;23;20027;-62
2021/12/27 06:53:08;;;;;;;34.00;21.02;;;;;;;1.63;87.31;99419.78;6189472;23;20147;-62
2021/12/27 06:56:11;;;;;;;31.45;20.95;;;;;;;1.57;87.32;99430.31;6209315;23;20043;-64
2021/12/27 06:59:15;;;;;;;32.83;21.38;;;;;;;1.52;87.66;99427.03;6192631;23;20027;-63
2021/12/27 07:02:18;;;;;;;;;;;;;;;1.65;87.53;99424.03;6210478;23;20473;-62
2021/12/27 07:05:21;;;;;;;33.22;20.60;;;;;;;1.72;87.08;99418.63;6209703;23;20253;-63
2021/12/27 07:08:26;;;;;;;;;;;;;;;1.68;87.25;99423.94;6210061;23;20022;-62
2021/12/27 07:11:30;;;;;;;31.48;21.50;;;;;;;1.60;87.19;99425.03;6190802;23;19919;-63
2021/12/27 07:14:33;;;;;;;34.15;21.13;;;;;;;1.59;87.50;99425.06;6209988;23;20406;-63
2021/12/27 07:17:37;;;;;;;35.75;21.58;;;;;;;1.62;87.52;99433.53;6209898;23;20100;-62
2021/12/27 07:20:40;;;;;;;36.95;22.55;;;;;;;1.71;87.10;99440.13;6210502;23;20027;-63
2021/12/27 07:23:44;;;;;;;36.42;21.80;;;;;;;1.67;87.20;99435.16;6209963;23;20028;-63
2021/12/27 07:26:47;;;;;;;35.80;21.65;;;;;;;1.66;87.15;99428.28;6214622;23;20024;-62
2021/12/27 07:29:51;;;;;;;36.25;21.67;;;;;;;1.65;87.48;99424.03;6214363;23;20026;-62
2021/12/27 07:32:55;;;;;;;;;;;;;;;1.69;87.06;99418.75;6214671;23;20066;-62
2021/12/27 07:35:58;;;;;;;39.00;23.17;;;;;;;1.68;87.04;99421.38;6215382;23;19915;-62
2021/12/27 07:39:03;;;;;;;41.22;23.20;;;;;;;1.75;87.29;99428.81;6210692;23;20071;-62
2021/12/27 07:42:06;;;;;;;47.28;27.27;;;;;;;1.80;86.92;99428.69;6210601;23;20366;-63
2021/12/27 07:45:09;;;;;;;47.70;25.90;;;;;;;1.68;87.32;99423.94;6209325;23;20020;-63
2021/12/27 07:48:13;;;;;;;;;;;;;;;1.80;87.39;99426.09;6209863;23;20074;-63
2021/12/27 07:51:16;;;;;;;43.78;26.63;;;;;;;1.83;87.04;99426.00;6206906;23;19923;-63
2021/12/27 07:54:19;;;;;;;46.85;25.45;;;;;;;1.85;86.77;99419.91;6209164;23;20027;-63
2021/12/27 07:57:23;;;;;;;;;;;;;;;1.92;86.71;99420.53;6209924;23;20027;-63
2021/12/27 08:00:26;;;;;;;44.95;25.27;;;;;;;1.90;86.75;99413.75;6208641;23;20215;-63
2021/12/27 08:03:29;;;;;;;45.92;24.88;;;;;;;1.81;87.15;99412.31;6208452;23;20067;-63
2021/12/27 08:06:33;;;;;;;46.45;26.48;;;;;;;1.75;87.53;99408.22;6208725;23;20417;-63
2021/12/27 08:09:36;;;;;;;44.58;25.00;;;;;;;1.68;87.90;99400.75;6208717;23;20354;-64
2021/12/27 08:12:41;;;;;;;45.58;25.35;;;;;;;1.72;88.18;99408.31;6209331;23;20073;-63
2021/12/27 08:15:45;;;;;;;49.38;26.02;;;;;;;1.62;87.96;99417.25;6210012;23;20055;-63
2021/12/27 08:18:48;;;;;;;;;;;;;;;1.60;88.59;99413.91;6208153;23;20027;-63
2021/12/27 08:21:51;;;;;;;41.38;25.58;;;;;;;1.72;88.09;99412.63;6206255;23;20369;-65
2021/12/27 08:24:54;;;;;;;38.42;23.42;;;;;;;1.81;87.85;99422.63;6202027;23;20023;-63
2021/12/27 08:27:58;;;;;;;42.30;24.15;;;;;;;1.89;87.95;99415.50;6206211;23;20673;-63
2021/12/27 08:31:01;;;;;;;49.92;27.30;;;;;;;1.92;87.68;99410.22;6207493;23;20095;-63
2021/12/27 08:34:04;;;;;;;50.30;27.75;;;;;;;1.93;87.36;99411.91;6207020;23;20079;-63
2021/12/27 08:37:08;;;;;;;;;;;;;;;2.00;87.07;99408.22;6208007;23;20028;-63
2021/12/27 08:40:12;;;;;;;44.10;26.73;;;;;;;1.94;87.39;99398.09;6207191;23;19915;-63
2021/12/27 08:43:15;;;;;;;46.83;27.23;;;;;;;1.99;86.96;99401.38;6205413;23;20520;-64
2021/12/27 08:46:19;;;;;;;;;;;;;;;1.97;87.30;99398.00;6207786;23;20440;-63
2021/12/27 08:49:22;;;;;;;47.90;29.10;;;;;;;2.05;87.17;99401.16;6207381;23;20140;-63
2021/12/27 08:52:27;;;;;;;55.65;29.67;;;;;;;1.95;87.19;99404.97;6206938;23;20027;-63
2021/12/27 08:55:30;;;;;;;59.33;30.77;;;;;;;1.83;87.94;99389.91;6187382;23;20034;-63
2021/12/27 08:58:34;;;;;;;52.85;29.98;;;;;;;1.82;88.39;99394.25;6206732;23;20108;-63
2021/12/27 09:01:37;;;;;;;48.78;27.33;;;;;;;1.88;88.26;99393.16;6206608;23;20103;-63
2021/12/27 09:04:40;;;;;;;44.50;25.55;;;;;;;1.93;87.90;99393.84;6207648;23;20039;-63
2021/12/27 09:07:44;;;;;;;;;;;;;;;2.21;88.95;99390.31;6208191;23;20359;-63
2021/12/27 09:10:47;;;;;;;44.73;24.93;;;;;;;2.37;87.65;99381.09;6206004;23;20192;-63
2021/12/27 09:13:50;;;;;;;44.17;25.75;;;;;;;2.39;86.95;99379.28;6206066;23;20266;-63
2021/12/27 09:16:54;;;;;;;40.45;25.45;;;;;;;2.46;86.84;99385.09;6206200;23;20027;-64
2021/12/27 09:19:57;;;;;;;;;;;;;;;2.58;86.17;99382.03;6207423;23;20035;-63
2021/12/27 09:23:00;;;;;;;45.95;26.10;;;;;;;2.68;86.38;99379.94;6207811;23;19915;-63
2021/12/27 09:26:04;;;;;;;37.17;23.42;;;;;;;2.67;85.67;99376.53;6212624;23;20043;-63
2021/12/27 09:29:07;;;;;;;40.35;24.33;;;;;;;2.64;85.46;99378.38;6211199;23;20030;-63
2021/12/27 09:32:12;;;;;;;40.40;23.58;;;;;;;2.70;85.71;99383.31;6211028;23;20027;-63
2021/12/27 09:35:15;;;;;;;39.60;23.50;;;;;;;2.71;85.48;99374.66;6204754;23;20032;-63
2021/12/27 09:38:18;;;;;;;44.88;25.55;;;;;;;2.76;85.21;99375.34;6206882;23;20250;-63
2021/12/27 09:41:23;;;;;;;44.45;25.15;;;;;;;2.58;85.97;99373.44;6207304;23;20370;-63
2021/12/27 09:44:27;;;;;;;40.65;24.95;;;;;;;2.46;86.23;99375.59;6206591;23;20027;-63
2021/12/27 09:47:32;;;;;;;40.78;24.17;;;;;;;2.31;86.29;99368.44;6208369;23;20028;-63
2021/12/27 09:50:47;;;;;;;40.38;24.45;;;;;;;2.30;86.39;99370.19;6207650;23;20027;-63
2021/12/27 09:53:53;;;;;;;48.17;27.15;;;;;;;2.33;86.58;99369.22;6206581;23;20409;-64
2021/12/27 09:56:58;;;;;;;35.80;23.20;;;;;;;2.31;87.01;99369.28;6206863;23;20031;-63
2021/12/27 10:00:28;;;;;;;37.00;24.52;;;;;;;2.32;86.81;99358.03;6208360;23;20066;-64
2021/12/27 10:03:52;;;;;;;34.10;22.23;;;;;;;2.30;86.90;99354.69;6206259;23;20023;-64
2021/12/27 10:06:58;;;;;;;29.98;19.35;;;;;;;2.35;86.46;99351.94;6206473;23;20102;-64
2021/12/27 10:10:02;;;;;;;32.00;21.30;;;;;;;2.37;86.63;99345.00;6207966;23;20059;-64
2021/12/27 10:13:09;;;;;;;;;;;;;;;2.39;86.75;99342.34;6208598;23;20075;-64
2021/12/27 10:16:14;;;;;;;29.23;18.42;;;;;;;2.50;86.14;99341.03;6208353;23;19927;-64
2021/12/27 10:19:20;;;;;;;24.25;17.00;;;;;;;2.52;86.29;99336.69;6205810;23;20032;-64
2021/12/27 10:22:24;;;;;;;38.92;26.67;;;;;;;2.49;86.37;99338.50;6206666;23;20019;-64
2021/12/27 10:25:28;;;;;;;35.03;23.27;;;;;;;2.46;86.76;99333.50;6207084;23;20087;-64
2021/12/27 10:28:31;;;;;;;24.85;18.85;;;;;;;2.48;86.93;99332.50;6206797;23;20058;-64
2021/12/27 10:32:04;;;;;;;23.58;16.83;;;;;;;2.49;86.29;99325.59;6207910;23;20114;-64
2021/12/27 10:35:09;;;;;;;27.80;18.60;;;;;;;2.33;86.42;99335.69;6209378;23;20154;-64
2021/12/27 10:38:36;;;;;;;23.17;16.17;;;;;;;2.22;87.41;99319.75;6208301;23;20032;-63
2021/12/27 10:41:39;;;;;;;22.98;16.88;;;;;;;2.33;87.42;99318.47;6190163;23;20098;-64
2021/12/27 10:44:43;;;;;;;20.42;14.25;;;;;;;2.58;86.78;99307.19;6209454;23;20358;-63
2021/12/27 10:47:55;;;;;;;20.48;14.40;;;;;;;2.73;85.95;99300.59;6210242;23;20027;-64
2021/12/27 10:50:58;;;;;;;24.42;17.83;;;;;;;2.82;85.66;99291.66;6211005;23;20071;-63
2021/12/27 10:54:07;;;;;;;28.23;17.55;;;;;;;2.75;86.07;99289.31;6213321;23;20111;-63
2021/12/27 10:57:10;;;;;;;25.15;17.92;;;;;;;2.98;85.02;99284.97;6213407;23;20697;-64
2021/12/27 11:04:26;;;;;;;18.67;12.98;;;;;;;2.97;85.17;99283.28;6213768;23;19922;-63
2021/12/27 11:07:30;;;;;;;17.33;12.88;;;;;;;2.94;85.88;99294.56;6215093;23;20263;-63
2021/12/27 11:10:35;;;;;;;;;;;;;;;3.02;85.36;99294.25;6215649;23;20023;-63
2021/12/27 11:14:01;;;;;;;15.25;11.45;;;;;;;3.09;85.45;99292.25;6215215;23;19954;-63
2021/12/27 11:17:10;;;;;;;13.02;10.38;;;;;;;3.06;85.81;99292.38;6197602;23;20086;-63
2021/12/27 11:20:13;;;;;;;16.25;11.70;;;;;;;3.10;85.82;99286.22;6215685;23;20024;-63
2021/12/27 11:23:17;;;;;;;16.88;11.50;;;;;;;3.08;85.75;99293.16;6215521;23;20572;-63
2021/12/27 11:26:32;;;;;;;16.77;11.60;;;;;;;3.10;85.70;99274.13;6215644;23;20354;-63
2021/12/27 11:29:35;;;;;;;13.63;10.27;;;;;;;3.19;85.86;99276.34;6193887;23;20027;-63
2021/12/27 11:33:06;;;;;;;15.80;11.00;;;;;;;3.24;86.62;99276.97;6215040;23;20059;-63
2021/12/27 11:36:10;;;;;;;16.33;12.10;;;;;;;3.26;86.45;99275.16;6214530;23;20019;-63
2021/12/27 11:39:26;;;;;;;15.70;11.55;;;;;;;3.32;86.73;99275.78;6195672;23;20075;-63
2021/12/27 11:42:29;;;;;;;13.93;10.20;;;;;;;3.30;86.87;99270.69;6213527;23;20023;-63
2021/12/27 11:45:57;;;;;;;12.93;10.48;;;;;;;3.36;86.53;99265.28;6215623;23;20457;-63
2021/12/27 11:49:00;;;;;;;13.50;10.77;;;;;;;3.22;86.64;99263.28;6215214;23;20520;-63
2021/12/27 11:52:23;;;;;;;;;;;;;;;3.18;87.47;99255.72;6216201;23;20027;-63
2021/12/27 11:55:38;;;;;;;13.10;10.25;;;;;;;3.27;87.14;99247.56;6215117;23;19965;-63
2021/12/27 11:58:50;;;;;;;13.48;9.27;;;;;;;3.44;86.61;99247.69;6215323;23;20345;-63
2021/12/27 12:01:56;;;;;;;13.27;9.63;;;;;;;3.46;86.36;99230.38;6215567;23;20043;-63
2021/12/27 12:04:59;;;;;;;12.50;9.38;;;;;;;3.37;86.35;99235.09;6215262;23;20027;-63
2021/12/27 12:08:04;;;;;;;14.95;11.38;;;;;;;3.38;86.57;99232.47;6215464;23;20332;-63
2021/12/27 12:11:10;;;;;;;13.48;10.55;;;;;;;3.25;87.19;99231.28;6215158;23;20063;-63
2021/12/27 12:14:34;;;;;;;14.90;11.10;;;;;;;3.35;87.02;99230.03;6215140;23;20028;-63
2021/12/27 12:17:40;;;;;;;14.90;10.63;;;;;;;3.39;86.84;99216.06;6215060;23;20063;-63
2021/12/27 12:20:43;;;;;;;14.80;11.40;;;;;;;3.37;87.17;99223.00;6215043;23;20023;-63
2021/12/27 12:23:57;;;;;;;13.55;10.88;;;;;;;3.42;87.18;99217.66;6215158;23;20032;-63
2021/12/27 12:27:04;;;;;;;14.65;10.48;;;;;;;3.50;87.22;99215.56;6214749;23;20027;-63
2021/12/27 12:30:32;;;;;;;16.27;10.80;;;;;;;3.50;86.92;99215.56;6214088;23;20023;-63
2021/12/27 12:33:35;;;;;;;15.38;11.45;;;;;;;3.55;86.76;99217.97;6212643;23;20358;-63
2021/12/27 12:36:51;;;;;;;14.00;10.82;;;;;;;3.40;87.36;99225.47;6212940;23;20051;-63
2021/12/27 12:39:54;;;;;;;16.60;12.82;;;;;;;3.19;88.47;99226.38;6212391;23;20070;-63
2021/12/27 12:42:57;;;;;;;17.48;12.43;;;;;;;3.28;88.18;99214.81;6213618;23;20027;-63
2021/12/27 12:46:28;;;;;;;41.13;36.78;;;;;;;3.35;88.00;99217.09;6214147;23;20383;-63
2021/12/27 12:49:31;;;;;;;19.63;14.48;;;;;;;3.40;87.68;99215.13;6214740;23;20087;-63
2021/12/27 12:52:47;;;;;;;22.52;16.23;;;;;;;3.14;88.71;99228.34;6196196;23;20104;-63
2021/12/27 12:55:50;;;;;;;19.42;15.30;;;;;;;3.26;88.54;99225.25;6214560;23;20027;-62
2021/12/27 12:58:54;;;;;;;23.88;15.57;;;;;;;3.30;88.23;99221.63;6214670;23;20028;-63
2021/12/27 13:02:09;;;;;;;;;;;;;;;3.02;89.65;99211.63;6215438;23;20088;-63
2021/12/27 13:05:15;;;;;;;29.58;18.45;;;;;;;3.13;89.25;99214.59;6214840;23;20014;-62
2021/12/27 13:08:18;;;;;;;28.27;17.42;;;;;;;3.31;88.95;99212.94;6214631;23;20473;-62
2021/12/27 13:11:21;;;;;;;21.85;15.00;;;;;;;3.35;88.30;99217.09;6214397;23;20023;-62
2021/12/27 13:14:25;;;;;;;19.73;13.73;;;;;;;3.53;87.84;99214.59;6214666;23;20080;-62
2021/12/27 13:17:28;;;;;;;23.23;14.15;;;;;;;3.32;88.32;99214.66;6214680;23;20279;-62
2021/12/27 13:20:35;;;;;;;;;;;;;;;3.08;89.44;99213.94;6215059;23;20027;-62
2021/12/27 13:23:41;;;;;;;20.88;13.18;;;;;;;3.30;88.68;99213.03;6213883;23;19915;-62
2021/12/27 13:26:44;;;;;;;19.23;13.38;;;;;;;3.40;88.58;99222.88;6213329;23;20042;-62
2021/12/27 13:30:06;;;;;;;21.67;13.57;;;;;;;3.38;88.51;99214.38;6213207;23;20024;-63
2021/12/27 13:33:09;;;;;;;22.55;13.38;;;;;;;3.44;88.61;99210.66;6213887;23;20476;-62
2021/12/27 13:36:25;;;;;;;23.55;16.02;;;;;;;3.58;87.82;99210.06;6213915;23;20354;-63
2021/12/27 13:39:29;;;;;;;18.17;13.50;;;;;;;3.61;88.27;99209.94;6214337;23;20024;-63
2021/12/27 13:42:32;;;;;;;20.17;13.50;;;;;;;3.36;88.55;99208.44;6214704;23;20027;-62
2021/12/27 13:45:42;;;;;;;19.35;13.63;;;;;;;3.43;88.73;99214.16;6214604;23;20078;-63
2021/12/27 13:48:45;;;;;;;18.08;12.85;;;;;;;3.59;88.57;99214.31;6214465;23;20027;-62
2021/12/27 13:51:57;;;;;;;;;;;;;;;3.58;88.38;99215.25;6213045;23;20027;-62
2021/12/27 13:55:01;;;;;;;19.90;13.10;;;;;;;3.57;88.23;99210.97;6195259;23;19918;-62
2021/12/27 13:58:21;;;;;;;20.10;13.00;;;;;;;3.59;88.17;99201.41;6212795;23;20118;-63
2021/12/27 14:01:24;;;;;;;19.75;12.85;;;;;;;3.67;88.08;99200.16;6214259;23;20023;-62
2021/12/27 14:04:29;;;;;;;19.67;14.15;;;;;;;3.69;87.79;99200.91;6214006;23;20051;-62
2021/12/27 14:07:31;;;;;;;20.45;13.85;;;;;;;3.68;87.84;99198.41;6214025;23;20079;-62
2021/12/27 14:10:35;;;;;;;;;;;;;;;3.72;87.96;99199.94;6214484;23;20102;-62
2021/12/27 14:14:00;;;;;;;18.98;13.05;;;;;;;3.74;87.82;99190.38;6212921;23;20344;-62
2021/12/27 14:17:05;;;;;;;18.08;13.38;;;;;;;3.77;88.24;99198.00;6212214;23;20468;-62
2021/12/27 14:20:13;;;;;;;22.80;14.93;;;;;;;3.75;88.04;99194.63;6212686;23;20028;-63
2021/12/27 14:23:16;;;;;;;21.23;14.27;;;;;;;3.69;88.29;99194.91;6212715;23;20055;-62
2021/12/27 14:26:19;;;;;;;23.10;15.55;;;;;;;3.65;88.92;99190.78;6212830;23;20027;-62
2021/12/27 14:29:23;;;;;;;21.08;14.93;;;;;;;3.64;88.62;99191.72;6212180;23;20075;-62
2021/12/27 14:32:26;;;;;;;20.42;14.15;;;;;;;3.70;88.46;99188.81;6213907;23;20031;-63
2021/12/27 14:35:34;;;;;;;23.08;16.40;;;;;;;3.68;88.21;99194.06;6213811;23;20099;-62
2021/12/27 14:38:37;;;;;;;22.50;14.25;;;;;;;3.67;88.67;99187.22;6213949;23;20027;-62
2021/12/27 14:41:41;;;;;;;22.50;15.32;;;;;;;3.46;89.26;99189.03;6213894;23;20023;-62
2021/12/27 14:44:56;;;;;;;20.27;14.20;;;;;;;3.63;88.85;99182.25;6214116;23;20039;-62
2021/12/27 14:48:00;;;;;;;24.45;16.75;;;;;;;3.67;88.84;99187.22;6213958;23;20402;-63
2021/12/27 14:51:04;;;;;;;28.25;20.38;;;;;;;3.62;89.00;99188.34;6214138;23;20028;-62
2021/12/27 14:54:07;;;;;;;25.65;18.48;;;;;;;3.63;88.82;99185.69;6213535;23;20415;-62
2021/12/27 14:57:10;;;;;;;;;;;;;;;3.70;88.98;99186.22;6214358;23;20027;-63
2021/12/27 15:00:35;;;;;;;25.20;18.50;;;;;;;3.66;88.85;99184.69;6213963;23;19935;-62
2021/12/27 15:03:40;;;;;;;28.55;17.67;;;;;;;3.57;89.30;99180.78;6214222;23;20047;-62